Norwegian Jade — C6WK7 — position and weather

sailwx.info

Track history (hours):
 
Tides and Currents Weather Stations Pressure Air Temp Water Temp Dewpoint Dewpoint Depression Visibility Wind Speed Wind Dir Waves Ship Positions

Norwegian Jade

Last reported at 2020-Aug-09 23:30 UTC. Time now 2020-Aug-10 00:18 UTC.
Position N 40°50' E 014°16'.

Length 294 m; draft 8.4 m.

Type: Passenger vessel. MMSI: 308416000.

Date/timePositionNaut miles runAvg speedWind from/ knotsBaromVisibWave heightAir tempDewpointWater temp
2020-Aug-09 23:30N 40°50' E 014°16'0 0.0
2020-Aug-09 20:00N 40°50' E 014°16'0 0.0
2020-Aug-09 18:30N 40°50' E 014°16'0 0.0
2020-Aug-09 16:30N 40°50' E 014°16'0 0.0
2020-Aug-09 14:57N 40°50' E 014°16'0 0.0
2020-Aug-09 12:30N 40°50' E 014°16'0 0.0
2020-Aug-09 11:00N 40°50' E 014°16'0 0.0
2020-Aug-09 09:30N 40°50' E 014°16'0 0.0
2020-Aug-09 07:30N 40°50' E 014°16'0 0.0
2020-Aug-09 06:57N 40°50' E 014°16'0 0.0
2020-Aug-09 05:27N 40°50' E 014°16'0 0.0
2020-Aug-09 04:27N 40°50' E 014°16'0 0.0
2020-Aug-08 23:30N 40°50' E 014°16'0 0.0
2020-Aug-08 22:30N 40°50' E 014°16'0 0.0
2020-Aug-08 21:30N 40°50' E 014°16'0 0.0
2020-Aug-08 17:30N 40°50' E 014°16'3311.0
2020-Aug-08 14:30N 40°24' E 013°50'14 9.5
2020-Aug-08 12:59N 40°13' E 013°36'9 6.0
2020-Aug-08 11:30N 40°19' E 013°27'510.1
2020-Aug-08 11:00N 40°24' E 013°28'11 7.3
2020-Aug-08 09:30N 40°28' E 013°41'4 7.2
2020-Aug-08 09:00N 40°28' E 013°46'1211.7
2020-Aug-08 08:00N 40°34' E 013°59'20 6.5
2020-Aug-08 04:55N 40°50' E 014°16'0 0.0
2020-Aug-08 03:58N 40°50' E 014°16'0 0.0
2020-Aug-08 03:28N 40°50' E 014°16'0 0.0
2020-Aug-08 02:58N 40°50' E 014°16'0 0.0
2020-Aug-08 00:58N 40°50' E 014°16'0 0.0
2020-Aug-07 23:55N 40°50' E 014°16'0 0.0
2020-Aug-07 21:58N 40°50' E 014°16'0 0.0
2020-Aug-07 19:25N 40°50' E 014°16'0 0.0
2020-Aug-07 17:28N 40°50' E 014°16'0 0.0
2020-Aug-07 16:28N 40°50' E 014°16'0 0.0
2020-Aug-07 13:55N 40°50' E 014°16'0 0.0
2020-Aug-07 12:58N 40°50' E 014°16'0 0.0
2020-Aug-07 12:28N 40°50' E 014°16'0 0.0
2020-Aug-07 10:28N 40°50' E 014°16'0 0.0
2020-Aug-07 09:58N 40°50' E 014°16'0 0.0
2020-Aug-07 06:28N 40°50' E 014°16'0 0.0
2020-Aug-07 04:58N 40°50' E 014°16'0 0.0
2020-Aug-07 04:28N 40°50' E 014°16'0 0.0
2020-Aug-07 03:58N 40°50' E 014°16'0 0.0
2020-Aug-07 03:28N 40°50' E 014°16'0 0.0
2020-Aug-07 00:55N 40°50' E 014°16'0 0.0
2020-Aug-06 23:28N 40°50' E 014°16'0 0.0
2020-Aug-06 21:28N 40°50' E 014°16'0 0.0
2020-Aug-06 19:58N 40°50' E 014°16'0 0.0
2020-Aug-06 15:58N 40°50' E 014°16'0 0.0
2020-Aug-06 13:22N 40°50' E 014°16'0 0.0
2020-Aug-06 05:58N 40°50' E 014°16'0 0.0
2020-Aug-06 05:28N 40°50' E 014°16'0 0.0
2020-Aug-06 04:28N 40°50' E 014°16'0 0.0
2020-Aug-06 03:58N 40°50' E 014°16'0 0.0
2020-Aug-06 01:58N 40°50' E 014°16'0 0.0
2020-Aug-06 01:28N 40°50' E 014°16'0 0.0
2020-Aug-05 22:25N 40°50' E 014°16'0 0.0
2020-Aug-05 19:58N 40°50' E 014°16'0 0.0
2020-Aug-05 19:28N 40°50' E 014°16'0 0.0
2020-Aug-05 17:25N 40°50' E 014°16'0 0.0
2020-Aug-05 13:58N 40°50' E 014°16'0 0.0
2020-Aug-05 12:58N 40°50' E 014°16'0 0.0
2020-Aug-05 12:28N 40°50' E 014°16'0 0.0
2020-Aug-05 09:28N 40°50' E 014°16'0 0.0
2020-Aug-05 06:28N 40°50' E 014°16'0 0.0
2020-Aug-05 04:28N 40°50' E 014°16'0 0.0
2020-Aug-05 00:28N 40°50' E 014°16'0 0.0
2020-Aug-04 22:28N 40°50' E 014°16'0 0.0
2020-Aug-04 20:58N 40°50' E 014°16'0 0.0
2020-Aug-04 19:58N 40°50' E 014°16'0 0.0
2020-Aug-04 16:58N 40°50' E 014°16'0 0.0
2020-Aug-04 10:58N 40°50' E 014°16'0 0.0
2020-Aug-04 09:28N 40°50' E 014°16'0 0.0
2020-Aug-04 08:55N 40°50' E 014°16'0 0.0
2020-Aug-04 08:28N 40°50' E 014°16'0 0.0
2020-Aug-04 04:58N 40°50' E 014°16'0 0.0
2020-Aug-04 03:55N 40°50' E 014°16'0 0.0
2020-Aug-04 02:55N 40°50' E 014°16'0 0.0
2020-Aug-03 22:28N 40°50' E 014°16'0 0.0
2020-Aug-03 17:28N 40°50' E 014°16'0 0.0
2020-Aug-03 16:25N 40°50' E 014°16'0 0.0
2020-Aug-03 15:28N 40°50' E 014°16'0 0.0
2020-Aug-03 12:58N 40°50' E 014°16'0 0.0
2020-Aug-03 10:58N 40°50' E 014°16'0 0.0
2020-Aug-03 09:58N 40°50' E 014°16'0 0.0
2020-Aug-03 09:28N 40°50' E 014°16'0 0.0
2020-Aug-03 08:58N 40°50' E 014°16'0 0.0
2020-Aug-03 06:58N 40°50' E 014°16'0 0.0
2020-Aug-03 05:28N 40°50' E 014°16'0 0.0
2020-Aug-03 04:28N 40°50' E 014°16'0 0.0
2020-Aug-03 03:25N 40°50' E 014°16'0 0.0
2020-Aug-02 23:58N 40°50' E 014°16'0 0.0
2020-Aug-02 17:28N 40°50' E 014°16'0 0.0
2020-Aug-02 16:28N 40°50' E 014°16'0 0.0
2020-Aug-02 13:28N 40°50' E 014°16'0 0.0
2020-Aug-02 12:58N 40°50' E 014°16'0 0.0
2020-Aug-02 12:25N 40°50' E 014°16'0 0.0
2020-Aug-02 10:25N 40°50' E 014°16'0 0.0
2020-Aug-02 09:55N 40°50' E 014°16'0 0.0
2020-Aug-02 06:28N 40°50' E 014°16'0 0.0
2020-Aug-02 04:58N 40°50' E 014°16'0 0.0
2020-Aug-02 04:28N 40°50' E 014°16'0 0.0
2020-Aug-02 03:55N 40°50' E 014°16'0 0.0
2020-Aug-02 02:58N 40°50' E 014°16'0 0.0
2020-Aug-02 01:55N 40°50' E 014°16'0 0.0
2020-Aug-02 00:55N 40°50' E 014°16'0 0.0
2020-Aug-01 22:28N 40°50' E 014°16'0 0.0
2020-Aug-01 15:58N 40°50' E 014°16'0 0.0
2020-Aug-01 13:58N 40°50' E 014°16'0 0.0
2020-Aug-01 11:28N 40°50' E 014°16'0 0.0
2020-Aug-01 09:25N 40°50' E 014°16'0 0.0
2020-Aug-01 05:28N 40°50' E 014°16'0 0.0
2020-Aug-01 02:58N 40°50' E 014°16'0 0.0
2020-Aug-01 02:28N 40°50' E 014°16'0 0.0
2020-Aug-01 00:28N 40°50' E 014°16'0 0.0
2020-Jul-31 23:58N 40°50' E 014°16'0 0.0
2020-Jul-31 21:28N 40°50' E 014°16'0 0.0
2020-Jul-31 17:58N 40°50' E 014°16'0 0.0
2020-Jul-31 15:28N 40°50' E 014°16'0 0.0
2020-Jul-31 11:58N 40°50' E 014°16'0 0.0
2020-Jul-31 09:58N 40°50' E 014°16'0 0.0
2020-Jul-31 06:28N 40°50' E 014°16'0 0.0
2020-Jul-31 05:58N 40°50' E 014°16'0 0.0
2020-Jul-31 04:58N 40°50' E 014°16'0 0.0
2020-Jul-31 03:58N 40°50' E 014°16'0 0.0
2020-Jul-31 00:58N 40°50' E 014°16'0 0.0
2020-Jul-31 00:28N 40°50' E 014°16'  
Track history (hours):
 
Tides and Currents Weather Stations Pressure Air Temp Water Temp Dewpoint Dewpoint Depression Visibility Wind Speed Wind Dir Waves Ship Positions

Norwegian Jade

Last reported at 2020-Aug-09 23:30 UTC. Time now 2020-Aug-10 00:18 UTC.
Position N 40°50' E 014°16'.

Length 294 m; draft 8.4 m.

Type: Passenger vessel. MMSI: 308416000.

Date/timePositionNaut miles runAvg speedWind from/ knotsBaromVisibWave heightAir tempDewpointWater temp
2020-Aug-09 23:30N 40°50' E 014°16'0 0.0
2020-Aug-09 20:00N 40°50' E 014°16'0 0.0
2020-Aug-09 18:30N 40°50' E 014°16'0 0.0
2020-Aug-09 16:30N 40°50' E 014°16'0 0.0
2020-Aug-09 14:57N 40°50' E 014°16'0 0.0
2020-Aug-09 12:30N 40°50' E 014°16'0 0.0
2020-Aug-09 11:00N 40°50' E 014°16'0 0.0
2020-Aug-09 09:30N 40°50' E 014°16'0 0.0
2020-Aug-09 07:30N 40°50' E 014°16'0 0.0
2020-Aug-09 06:57N 40°50' E 014°16'0 0.0
2020-Aug-09 05:27N 40°50' E 014°16'0 0.0
2020-Aug-09 04:27N 40°50' E 014°16'0 0.0
2020-Aug-08 23:30N 40°50' E 014°16'0 0.0
2020-Aug-08 22:30N 40°50' E 014°16'0 0.0
2020-Aug-08 21:30N 40°50' E 014°16'0 0.0
2020-Aug-08 17:30N 40°50' E 014°16'3311.0
2020-Aug-08 14:30N 40°24' E 013°50'14 9.5
2020-Aug-08 12:59N 40°13' E 013°36'9 6.0
2020-Aug-08 11:30N 40°19' E 013°27'510.1
2020-Aug-08 11:00N 40°24' E 013°28'11 7.3
2020-Aug-08 09:30N 40°28' E 013°41'4 7.2
2020-Aug-08 09:00N 40°28' E 013°46'1211.7
2020-Aug-08 08:00N 40°34' E 013°59'20 6.5
2020-Aug-08 04:55N 40°50' E 014°16'0 0.0
2020-Aug-08 03:58N 40°50' E 014°16'0 0.0
2020-Aug-08 03:28N 40°50' E 014°16'0 0.0
2020-Aug-08 02:58N 40°50' E 014°16'0 0.0
2020-Aug-08 00:58N 40°50' E 014°16'0 0.0
2020-Aug-07 23:55N 40°50' E 014°16'0 0.0
2020-Aug-07 21:58N 40°50' E 014°16'0 0.0
2020-Aug-07 19:25N 40°50' E 014°16'0 0.0
2020-Aug-07 17:28N 40°50' E 014°16'0 0.0
2020-Aug-07 16:28N 40°50' E 014°16'0 0.0
2020-Aug-07 13:55N 40°50' E 014°16'0 0.0
2020-Aug-07 12:58N 40°50' E 014°16'0 0.0
2020-Aug-07 12:28N 40°50' E 014°16'0 0.0
2020-Aug-07 10:28N 40°50' E 014°16'0 0.0
2020-Aug-07 09:58N 40°50' E 014°16'0 0.0
2020-Aug-07 06:28N 40°50' E 014°16'0 0.0
2020-Aug-07 04:58N 40°50' E 014°16'0 0.0
2020-Aug-07 04:28N 40°50' E 014°16'0 0.0
2020-Aug-07 03:58N 40°50' E 014°16'0 0.0
2020-Aug-07 03:28N 40°50' E 014°16'0 0.0
2020-Aug-07 00:55N 40°50' E 014°16'0 0.0
2020-Aug-06 23:28N 40°50' E 014°16'0 0.0
2020-Aug-06 21:28N 40°50' E 014°16'0 0.0
2020-Aug-06 19:58N 40°50' E 014°16'0 0.0
2020-Aug-06 15:58N 40°50' E 014°16'0 0.0
2020-Aug-06 13:22N 40°50' E 014°16'0 0.0
2020-Aug-06 05:58N 40°50' E 014°16'0 0.0
2020-Aug-06 05:28N 40°50' E 014°16'0 0.0
2020-Aug-06 04:28N 40°50' E 014°16'0 0.0
2020-Aug-06 03:58N 40°50' E 014°16'0 0.0
2020-Aug-06 01:58N 40°50' E 014°16'0 0.0
2020-Aug-06 01:28N 40°50' E 014°16'0 0.0
2020-Aug-05 22:25N 40°50' E 014°16'0 0.0
2020-Aug-05 19:58N 40°50' E 014°16'0 0.0
2020-Aug-05 19:28N 40°50' E 014°16'0 0.0
2020-Aug-05 17:25N 40°50' E 014°16'0 0.0
2020-Aug-05 13:58N 40°50' E 014°16'0 0.0
2020-Aug-05 12:58N 40°50' E 014°16'0 0.0
2020-Aug-05 12:28N 40°50' E 014°16'0 0.0
2020-Aug-05 09:28N 40°50' E 014°16'0 0.0
2020-Aug-05 06:28N 40°50' E 014°16'0 0.0
2020-Aug-05 04:28N 40°50' E 014°16'0 0.0
2020-Aug-05 00:28N 40°50' E 014°16'0 0.0
2020-Aug-04 22:28N 40°50' E 014°16'0 0.0
2020-Aug-04 20:58N 40°50' E 014°16'0 0.0
2020-Aug-04 19:58N 40°50' E 014°16'0 0.0
2020-Aug-04 16:58N 40°50' E 014°16'0 0.0
2020-Aug-04 10:58N 40°50' E 014°16'0 0.0
2020-Aug-04 09:28N 40°50' E 014°16'0 0.0
2020-Aug-04 08:55N 40°50' E 014°16'0 0.0
2020-Aug-04 08:28N 40°50' E 014°16'0 0.0
2020-Aug-04 04:58N 40°50' E 014°16'0 0.0
2020-Aug-04 03:55N 40°50' E 014°16'0 0.0
2020-Aug-04 02:55N 40°50' E 014°16'0 0.0
2020-Aug-03 22:28N 40°50' E 014°16'0 0.0
2020-Aug-03 17:28N 40°50' E 014°16'0 0.0
2020-Aug-03 16:25N 40°50' E 014°16'0 0.0
2020-Aug-03 15:28N 40°50' E 014°16'0 0.0
2020-Aug-03 12:58N 40°50' E 014°16'0 0.0
2020-Aug-03 10:58N 40°50' E 014°16'0 0.0
2020-Aug-03 09:58N 40°50' E 014°16'0 0.0
2020-Aug-03 09:28N 40°50' E 014°16'0 0.0
2020-Aug-03 08:58N 40°50' E 014°16'0 0.0
2020-Aug-03 06:58N 40°50' E 014°16'0 0.0
2020-Aug-03 05:28N 40°50' E 014°16'0 0.0
2020-Aug-03 04:28N 40°50' E 014°16'0 0.0
2020-Aug-03 03:25N 40°50' E 014°16'0 0.0
2020-Aug-02 23:58N 40°50' E 014°16'0 0.0
2020-Aug-02 17:28N 40°50' E 014°16'0 0.0
2020-Aug-02 16:28N 40°50' E 014°16'0 0.0
2020-Aug-02 13:28N 40°50' E 014°16'0 0.0
2020-Aug-02 12:58N 40°50' E 014°16'0 0.0
2020-Aug-02 12:25N 40°50' E 014°16'0 0.0
2020-Aug-02 10:25N 40°50' E 014°16'0 0.0
2020-Aug-02 09:55N 40°50' E 014°16'0 0.0
2020-Aug-02 06:28N 40°50' E 014°16'0 0.0
2020-Aug-02 04:58N 40°50' E 014°16'0 0.0
2020-Aug-02 04:28N 40°50' E 014°16'0 0.0
2020-Aug-02 03:55N 40°50' E 014°16'0 0.0
2020-Aug-02 02:58N 40°50' E 014°16'0 0.0
2020-Aug-02 01:55N 40°50' E 014°16'0 0.0
2020-Aug-02 00:55N 40°50' E 014°16'0 0.0
2020-Aug-01 22:28N 40°50' E 014°16'0 0.0
2020-Aug-01 15:58N 40°50' E 014°16'0 0.0
2020-Aug-01 13:58N 40°50' E 014°16'0 0.0
2020-Aug-01 11:28N 40°50' E 014°16'0 0.0
2020-Aug-01 09:25N 40°50' E 014°16'0 0.0
2020-Aug-01 05:28N 40°50' E 014°16'0 0.0
2020-Aug-01 02:58N 40°50' E 014°16'0 0.0
2020-Aug-01 02:28N 40°50' E 014°16'0 0.0
2020-Aug-01 00:28N 40°50' E 014°16'0 0.0
2020-Jul-31 23:58N 40°50' E 014°16'0 0.0
2020-Jul-31 21:28N 40°50' E 014°16'0 0.0
2020-Jul-31 17:58N 40°50' E 014°16'0 0.0
2020-Jul-31 15:28N 40°50' E 014°16'0 0.0
2020-Jul-31 11:58N 40°50' E 014°16'0 0.0
2020-Jul-31 09:58N 40°50' E 014°16'0 0.0
2020-Jul-31 06:28N 40°50' E 014°16'0 0.0
2020-Jul-31 05:58N 40°50' E 014°16'0 0.0
2020-Jul-31 04:58N 40°50' E 014°16'0 0.0
2020-Jul-31 03:58N 40°50' E 014°16'0 0.0
2020-Jul-31 00:58N 40°50' E 014°16'0 0.0
2020-Jul-31 00:28N 40°50' E 014°16'  

Dump ship's entire track history